createdAt,value
2022-09-01T00:00:23.776Z,17.90
2022-09-01T00:03:12.567Z,17.90
2022-09-01T00:06:01.053Z,17.90
2022-09-01T00:08:48.594Z,17.80
2022-09-01T00:11:37.337Z,17.80
2022-09-01T00:14:30.739Z,17.80
2022-09-01T00:17:18.635Z,17.70
2022-09-01T00:20:07.450Z,17.70
2022-09-01T00:22:57.765Z,17.70
2022-09-01T00:25:47.788Z,17.60
2022-09-01T00:28:35.311Z,17.60
2022-09-01T00:31:25.219Z,17.40
2022-09-01T00:34:12.763Z,17.40
2022-09-01T00:37:00.475Z,17.40
2022-09-01T00:39:48.547Z,17.30
2022-09-01T00:42:36.003Z,17.30
2022-09-01T00:45:23.719Z,17.20
2022-09-01T00:48:15.230Z,17.10
2022-09-01T00:51:03.681Z,17.10
2022-09-01T00:53:56.098Z,17.00
2022-09-01T00:56:46.566Z,16.90
2022-09-01T00:59:34.307Z,16.90
2022-09-01T01:02:23.019Z,16.90
2022-09-01T01:05:14.426Z,16.90
2022-09-01T01:08:03.489Z,16.90
2022-09-01T01:10:51.033Z,16.90
2022-09-01T01:13:48.883Z,16.90
2022-09-01T01:16:36.650Z,16.80
2022-09-01T01:19:48.516Z,16.80
2022-09-01T01:22:59.410Z,16.70
2022-09-01T01:25:50.250Z,16.70
2022-09-01T01:28:39.214Z,16.60
2022-09-01T01:31:27.062Z,16.60
2022-09-01T01:34:15.053Z,16.60
2022-09-01T01:37:05.634Z,16.50
2022-09-01T01:39:53.646Z,16.50
2022-09-01T01:42:44.127Z,16.50
2022-09-01T01:45:31.502Z,16.30
2022-09-01T01:48:24.636Z,16.40
2022-09-01T01:51:14.020Z,16.30
2022-09-01T01:54:02.240Z,16.30
2022-09-01T01:56:50.096Z,16.20
2022-09-01T01:59:40.996Z,16.10
2022-09-01T02:02:28.402Z,16.10
2022-09-01T02:05:22.176Z,16.00
2022-09-01T02:08:12.971Z,16.00
2022-09-01T02:11:01.120Z,16.00
2022-09-01T02:13:49.873Z,16.00
2022-09-01T02:16:39.143Z,16.00
2022-09-01T02:19:26.935Z,15.90
2022-09-01T02:22:14.232Z,15.90
2022-09-01T02:25:02.221Z,17.20
2022-09-01T02:28:02.151Z,15.80
2022-09-01T02:30:52.291Z,15.80
2022-09-01T02:33:45.844Z,15.80
2022-09-01T02:36:35.255Z,16.40
2022-09-01T02:39:24.285Z,16.00
2022-09-01T02:42:13.958Z,15.90
2022-09-01T02:45:02.704Z,15.90
2022-09-01T02:47:51.442Z,15.90
2022-09-01T02:50:41.233Z,15.90
2022-09-01T02:53:28.463Z,15.90
2022-09-01T02:56:17.226Z,15.90
2022-09-01T02:59:04.745Z,16.00
2022-09-01T03:01:52.930Z,15.90
2022-09-01T03:04:40.758Z,15.90
2022-09-01T03:07:31.404Z,15.90
2022-09-01T03:10:21.551Z,15.80
2022-09-01T03:13:13.356Z,15.80
2022-09-01T03:16:01.373Z,15.70
2022-09-01T03:18:49.511Z,15.70
2022-09-01T03:21:39.960Z,15.70
2022-09-01T03:24:29.066Z,15.60
2022-09-01T03:27:16.606Z,15.50
2022-09-01T03:30:04.725Z,15.40
2022-09-01T03:32:52.280Z,15.30
2022-09-01T03:35:40.435Z,15.20
2022-09-01T03:38:27.784Z,15.10
2022-09-01T03:41:18.313Z,15.10
2022-09-01T03:44:05.904Z,15.00
2022-09-01T03:46:53.890Z,14.90
2022-09-01T03:49:43.712Z,14.90
2022-09-01T03:52:31.199Z,14.80
2022-09-01T03:55:23.312Z,14.80
2022-09-01T03:58:14.798Z,14.70
2022-09-01T04:01:03.062Z,14.70
2022-09-01T04:03:53.081Z,14.60
2022-09-01T04:06:45.150Z,14.60
2022-09-01T04:09:36.700Z,14.50
2022-09-01T04:12:26.002Z,14.50
2022-09-01T04:15:17.138Z,14.60
2022-09-01T04:18:10.193Z,14.60
2022-09-01T04:20:59.712Z,14.50
2022-09-01T04:23:47.381Z,14.50
2022-09-01T04:26:35.119Z,14.40
2022-09-01T04:29:27.763Z,14.40
2022-09-01T04:32:21.876Z,14.30
2022-09-01T04:35:18.716Z,14.30
2022-09-01T04:38:08.519Z,14.20
2022-09-01T04:40:57.503Z,14.10
2022-09-01T04:43:47.384Z,14.10
2022-09-01T04:46:36.388Z,14.10
2022-09-01T04:49:30.056Z,14.00
2022-09-01T04:52:17.839Z,14.00
2022-09-01T04:55:05.714Z,13.90
2022-09-01T04:57:54.888Z,13.90
2022-09-01T05:00:42.544Z,13.80
2022-09-01T05:03:32.240Z,13.80
2022-09-01T05:06:39.629Z,13.90
2022-09-01T05:09:27.868Z,13.80
2022-09-01T05:12:29.572Z,13.90
2022-09-01T05:15:17.903Z,13.90
2022-09-01T05:18:10.115Z,13.90
2022-09-01T05:20:57.719Z,13.90
2022-09-01T05:23:47.941Z,14.00
2022-09-01T05:26:36.155Z,14.10
2022-09-01T05:29:25.833Z,14.10
2022-09-01T05:32:14.162Z,14.20
2022-09-01T05:35:02.338Z,14.20
2022-09-01T05:37:52.011Z,14.20
2022-09-01T05:40:43.896Z,14.20
2022-09-01T05:43:32.053Z,14.20
2022-09-01T05:46:22.969Z,14.20
2022-09-01T05:49:13.706Z,14.20
2022-09-01T05:52:03.454Z,14.20
2022-09-01T05:54:52.068Z,14.30
2022-09-01T05:57:41.097Z,14.20
2022-09-01T06:00:34.957Z,14.20
2022-09-01T06:03:25.060Z,14.20
2022-09-01T06:06:13.011Z,14.20
2022-09-01T06:09:02.366Z,14.30
2022-09-01T06:11:50.538Z,14.40
2022-09-01T06:14:39.426Z,14.40
2022-09-01T06:17:27.407Z,14.40
2022-09-01T06:20:19.277Z,14.40
2022-09-01T06:23:07.250Z,14.50
2022-09-01T06:25:55.544Z,14.60
2022-09-01T06:28:43.922Z,14.70
2022-09-01T06:31:34.301Z,14.80
2022-09-01T06:34:27.697Z,14.90
2022-09-01T06:37:15.731Z,15.00
2022-09-01T06:40:06.256Z,15.10
2022-09-01T06:42:54.387Z,15.20
2022-09-01T06:45:42.714Z,15.30
2022-09-01T06:48:32.439Z,15.50
2022-09-01T06:51:25.900Z,15.60
2022-09-01T06:54:20.753Z,15.70
2022-09-01T07:00:18.840Z,15.90
2022-09-01T07:03:09.538Z,16.30
2022-09-01T07:06:58.670Z,16.40
2022-09-01T07:13:05.419Z,16.70
2022-09-01T07:19:04.172Z,17.00
2022-09-01T07:22:35.838Z,17.00
2022-09-01T07:25:13.095Z,17.10
2022-09-01T07:31:52.034Z,17.30
2022-09-01T07:34:52.790Z,17.50
2022-09-01T07:42:31.940Z,16.50
2022-09-01T07:42:56.765Z,17.30
2022-09-01T07:44:20.537Z,17.80
2022-09-01T07:50:40.951Z,18.00
2022-09-01T07:53:32.646Z,18.10
2022-09-01T07:56:21.907Z,18.30
2022-09-01T07:59:15.148Z,18.70
2022-09-01T08:02:41.678Z,18.60
2022-09-01T08:05:30.173Z,18.70
2022-09-01T08:08:19.356Z,18.70
2022-09-01T08:11:09.613Z,18.80
2022-09-01T08:13:59.145Z,18.90
2022-09-01T08:16:54.266Z,19.10
2022-09-01T08:19:44.018Z,19.20
2022-09-01T08:22:34.207Z,19.30
2022-09-01T08:25:33.118Z,19.40
2022-09-01T08:28:29.640Z,19.60
2022-09-01T08:31:19.466Z,19.70
2022-09-01T08:34:09.098Z,19.80
2022-09-01T08:36:56.806Z,19.90
2022-09-01T08:39:44.540Z,20.00
2022-09-01T08:42:41.265Z,20.10
2022-09-01T08:45:31.894Z,20.10
2022-09-01T08:49:09.703Z,20.10
2022-09-01T08:51:33.986Z,20.20
2022-09-01T08:54:31.828Z,20.20
2022-09-01T08:57:22.093Z,20.30
2022-09-01T09:00:37.845Z,20.50
2022-09-01T09:03:41.885Z,20.10
2022-09-01T09:06:35.512Z,20.70
2022-09-01T09:09:34.020Z,20.90
2022-09-01T09:12:31.276Z,21.00
2022-09-01T09:15:23.809Z,21.20
2022-09-01T09:18:20.096Z,21.30
2022-09-01T09:21:29.862Z,21.40
2022-09-01T09:24:22.863Z,21.60
2022-09-01T09:27:11.173Z,21.70
2022-09-01T09:30:08.140Z,21.90
2022-09-01T09:33:30.918Z,22.20
2022-09-01T09:36:22.087Z,22.40
2022-09-01T09:39:16.656Z,22.60
2022-09-01T09:42:09.700Z,22.60
2022-09-01T09:44:58.357Z,22.80
2022-09-01T09:47:49.552Z,22.90
2022-09-01T09:50:38.792Z,23.10
2022-09-01T09:53:30.186Z,23.40
2022-09-01T09:56:19.701Z,23.60
2022-09-01T09:59:29.215Z,23.80
2022-09-01T10:02:29.410Z,24.10
2022-09-01T10:05:25.344Z,24.00
2022-09-01T10:08:14.958Z,23.80
2022-09-01T10:11:05.170Z,23.70
2022-09-01T10:13:53.856Z,23.70
2022-09-01T10:16:42.639Z,23.70
2022-09-01T10:19:35.566Z,23.60
2022-09-01T10:22:25.556Z,23.70
2022-09-01T10:25:18.195Z,23.60
2022-09-01T10:28:11.516Z,23.60
2022-09-01T10:30:59.811Z,23.60
2022-09-01T10:33:47.690Z,23.80
2022-09-01T10:36:37.405Z,23.60
2022-09-01T10:39:28.491Z,23.60
2022-09-01T10:42:19.403Z,23.70
2022-09-01T10:45:17.916Z,23.70
2022-09-01T10:48:30.569Z,23.60
2022-09-01T10:51:50.425Z,23.60
2022-09-01T10:54:55.825Z,23.70
2022-09-01T10:57:52.319Z,23.80
2022-09-01T11:04:00.741Z,24.10
2022-09-01T11:07:14.502Z,23.90
2022-09-01T11:10:34.036Z,23.90
2022-09-01T11:13:31.671Z,24.00
2022-09-01T11:16:50.376Z,24.00
2022-09-01T11:19:44.472Z,24.00
2022-09-01T11:22:33.858Z,24.00
2022-09-01T11:25:39.638Z,24.00
2022-09-01T11:28:45.807Z,24.20
2022-09-01T11:31:39.949Z,24.10
2022-09-01T11:34:28.455Z,24.00
2022-09-01T11:37:17.671Z,24.00
2022-09-01T11:40:08.405Z,24.10
2022-09-01T11:42:57.853Z,24.00
2022-09-01T11:45:50.700Z,24.00
2022-09-01T11:48:40.332Z,23.90
2022-09-01T11:51:28.570Z,24.10
2022-09-01T11:54:16.987Z,23.90
2022-09-01T11:57:17.853Z,23.90
2022-09-01T12:00:08.315Z,23.90
2022-09-01T12:03:00.309Z,24.10
2022-09-01T12:05:50.919Z,24.40
2022-09-01T12:08:39.682Z,24.50
2022-09-01T12:11:30.533Z,24.60
2022-09-01T12:14:21.691Z,24.70
2022-09-01T12:17:09.833Z,24.90
2022-09-01T12:19:57.072Z,25.00
2022-09-01T12:22:46.752Z,25.00
2022-09-01T12:25:36.091Z,25.10
2022-09-01T12:28:25.028Z,25.20
2022-09-01T12:31:15.050Z,25.00
2022-09-01T12:34:05.005Z,25.10
2022-09-01T12:37:03.949Z,25.10
2022-09-01T12:39:54.691Z,25.10
2022-09-01T12:42:50.473Z,25.40
2022-09-01T12:45:42.239Z,25.50
2022-09-01T12:48:31.691Z,25.50
2022-09-01T12:51:31.406Z,25.60
2022-09-01T12:54:26.041Z,25.70
2022-09-01T12:57:27.679Z,25.80
2022-09-01T13:00:18.174Z,25.60
2022-09-01T13:03:08.453Z,25.30
2022-09-01T13:05:59.985Z,25.30
2022-09-01T13:08:47.857Z,25.20
2022-09-01T13:14:45.119Z,25.30
2022-09-01T13:17:32.489Z,25.00
2022-09-01T13:20:20.450Z,25.00
2022-09-01T13:23:08.528Z,25.30
2022-09-01T13:25:57.066Z,25.50
2022-09-01T13:28:45.117Z,25.40
2022-09-01T13:31:35.639Z,25.40
2022-09-01T13:34:24.944Z,25.40
2022-09-01T13:37:12.758Z,25.60
2022-09-01T13:40:00.154Z,25.80
2022-09-01T13:42:49.574Z,26.00
2022-09-01T13:45:38.149Z,25.90
2022-09-01T13:49:02.477Z,25.80
2022-09-01T13:51:37.412Z,25.80
2022-09-01T13:54:24.966Z,25.60
2022-09-01T13:57:12.973Z,25.50
2022-09-01T14:00:00.607Z,25.50
2022-09-01T14:02:50.435Z,25.20
2022-09-01T14:05:41.278Z,25.50
2022-09-01T14:08:29.958Z,25.70
2022-09-01T14:11:20.107Z,25.90
2022-09-01T14:14:08.046Z,25.80
2022-09-01T14:16:55.238Z,25.80
2022-09-01T14:19:43.369Z,25.80
2022-09-01T14:22:37.733Z,25.70
2022-09-01T14:25:27.225Z,25.50
2022-09-01T14:28:16.380Z,25.60
2022-09-01T14:31:11.935Z,25.40
2022-09-01T14:34:00.065Z,25.40
2022-09-01T14:36:47.645Z,25.50
2022-09-01T14:39:38.629Z,25.70
2022-09-01T14:42:29.366Z,25.70
2022-09-01T14:45:18.687Z,25.70
2022-09-01T14:48:09.056Z,25.80
2022-09-01T14:50:56.850Z,24.00
2022-09-01T14:53:44.669Z,25.40
2022-09-01T14:56:33.259Z,25.40
2022-09-01T14:59:21.177Z,25.40
2022-09-01T15:02:09.894Z,26.00
2022-09-01T15:04:57.926Z,25.40
2022-09-01T15:07:45.783Z,25.50
2022-09-01T15:10:34.503Z,25.70
2022-09-01T15:13:23.940Z,25.60
2022-09-01T15:19:03.244Z,25.60
2022-09-01T15:21:51.092Z,25.50
2022-09-01T15:24:38.878Z,25.50
2022-09-01T15:27:29.353Z,25.60
2022-09-01T15:30:19.875Z,25.60
2022-09-01T15:33:10.776Z,25.60
2022-09-01T15:36:01.071Z,25.70
2022-09-01T15:38:48.464Z,25.70
2022-09-01T15:41:36.666Z,25.70
2022-09-01T15:44:26.148Z,25.70
2022-09-01T15:47:15.073Z,25.40
2022-09-01T15:50:02.589Z,25.50
2022-09-01T15:52:53.692Z,25.50
2022-09-01T15:55:44.860Z,25.60
2022-09-01T15:58:44.513Z,25.60
2022-09-01T16:01:41.042Z,25.40
2022-09-01T16:04:30.186Z,25.40
2022-09-01T16:07:18.389Z,25.40
2022-09-01T16:10:11.508Z,25.50
2022-09-01T16:12:59.719Z,25.50
2022-09-01T16:15:50.224Z,25.60
2022-09-01T16:18:41.760Z,25.60
2022-09-01T16:21:36.334Z,26.10
2022-09-01T16:24:25.470Z,25.60
2022-09-01T16:27:15.681Z,25.40
2022-09-01T16:30:04.790Z,25.40
2022-09-01T16:32:52.678Z,25.30
2022-09-01T16:35:44.843Z,25.00
2022-09-01T16:38:36.973Z,25.90
2022-09-01T16:41:36.429Z,25.10
2022-09-01T16:44:28.616Z,25.20
2022-09-01T16:47:26.009Z,25.20
2022-09-01T16:50:21.965Z,25.10
2022-09-01T16:53:15.658Z,25.20
2022-09-01T16:56:07.583Z,25.10
2022-09-01T16:58:57.623Z,25.00
2022-09-01T17:01:49.365Z,25.00
2022-09-01T17:04:39.657Z,25.00
2022-09-01T17:07:29.986Z,24.90
2022-09-01T17:10:21.186Z,24.90
2022-09-01T17:13:17.372Z,24.80
2022-09-01T17:16:07.972Z,24.70
2022-09-01T17:18:57.699Z,24.60
2022-09-01T17:21:53.007Z,24.60
2022-09-01T17:24:42.797Z,24.40
2022-09-01T17:27:34.086Z,24.30
2022-09-01T17:30:23.865Z,24.10
2022-09-01T17:33:18.704Z,24.00
2022-09-01T17:36:14.069Z,23.90
2022-09-01T17:39:07.505Z,23.90
2022-09-01T17:41:56.527Z,23.80
2022-09-01T17:44:48.211Z,24.00
2022-09-01T17:47:43.625Z,23.70
2022-09-01T17:50:35.322Z,23.60
2022-09-01T17:53:29.175Z,23.50
2022-09-01T17:56:23.301Z,23.30
2022-09-01T17:59:15.297Z,23.10
2022-09-01T18:02:08.018Z,23.10
2022-09-01T18:05:08.996Z,23.00
2022-09-01T18:08:05.204Z,22.90
2022-09-01T18:10:57.854Z,22.80
2022-09-01T18:13:53.323Z,22.70
2022-09-01T18:16:48.748Z,22.50
2022-09-01T18:19:38.566Z,22.40
2022-09-01T18:22:28.959Z,22.30
2022-09-01T18:25:18.537Z,22.20
2022-09-01T18:28:06.320Z,22.10
2022-09-01T18:30:57.646Z,22.00
2022-09-01T18:33:51.228Z,21.90
2022-09-01T18:36:42.934Z,21.70
2022-09-01T18:39:37.138Z,21.60
2022-09-01T18:42:27.137Z,21.60
2022-09-01T18:45:21.894Z,21.40
2022-09-01T18:48:14.304Z,21.30
2022-09-01T18:51:05.314Z,21.30
2022-09-01T18:53:53.947Z,21.30
2022-09-01T18:56:45.536Z,21.20
2022-09-01T18:59:50.046Z,21.30
2022-09-01T19:02:41.985Z,21.30
2022-09-01T19:05:35.221Z,21.30
2022-09-01T19:08:31.078Z,21.30
2022-09-01T19:11:25.035Z,21.30
2022-09-01T19:14:18.139Z,21.20
2022-09-01T19:17:17.938Z,21.20
2022-09-01T19:20:07.330Z,21.10
2022-09-01T19:22:58.298Z,21.10
2022-09-01T19:25:45.757Z,21.10
2022-09-01T19:28:37.516Z,20.90
2022-09-01T19:31:29.610Z,20.90
2022-09-01T19:34:19.688Z,20.90
2022-09-01T19:37:13.643Z,19.10
2022-09-01T19:40:03.406Z,20.90
2022-09-01T19:42:54.194Z,20.90
2022-09-01T19:45:47.336Z,20.90
2022-09-01T19:48:39.442Z,21.00
2022-09-01T19:51:29.130Z,20.80
2022-09-01T19:54:22.080Z,20.80
2022-09-01T19:57:11.759Z,20.70
2022-09-01T20:00:03.054Z,20.70
2022-09-01T20:02:55.148Z,20.70
2022-09-01T20:05:46.418Z,20.60
2022-09-01T20:08:36.297Z,20.40
2022-09-01T20:11:31.312Z,20.60
2022-09-01T20:14:31.045Z,20.60
2022-09-01T20:17:38.403Z,20.60
2022-09-01T20:20:28.189Z,20.50
2022-09-01T20:23:20.681Z,20.50
2022-09-01T20:26:11.041Z,20.50
2022-09-01T20:29:02.264Z,20.50
2022-09-01T20:31:51.104Z,20.50
2022-09-01T20:34:43.218Z,20.50
2022-09-01T20:37:32.150Z,20.50
2022-09-01T20:40:22.289Z,20.20
2022-09-01T20:43:18.552Z,20.50
2022-09-01T20:46:05.768Z,20.50
2022-09-01T20:48:54.144Z,20.40
2022-09-01T20:51:46.718Z,20.40
2022-09-01T20:54:37.415Z,20.30
2022-09-01T20:57:32.153Z,20.30
2022-09-01T21:00:23.023Z,20.20
2022-09-01T21:03:14.971Z,20.00
2022-09-01T21:06:06.283Z,19.90
2022-09-01T21:08:59.505Z,19.90
2022-09-01T21:11:49.430Z,19.90
2022-09-01T21:14:44.245Z,19.90
2022-09-01T21:17:37.064Z,19.90
2022-09-01T21:20:30.444Z,19.90
2022-09-01T21:23:20.351Z,19.90
2022-09-01T21:26:10.210Z,19.90
2022-09-01T21:28:59.396Z,19.90
2022-09-01T21:31:48.637Z,19.90
2022-09-01T21:34:35.813Z,19.90
2022-09-01T21:37:23.905Z,19.90
2022-09-01T21:40:12.501Z,19.80
2022-09-01T21:43:03.088Z,19.80
2022-09-01T21:45:50.949Z,19.80
2022-09-01T21:48:38.431Z,19.80
2022-09-01T21:51:25.602Z,19.70
2022-09-01T21:54:13.279Z,19.70
2022-09-01T21:57:01.493Z,19.60
2022-09-01T21:59:50.492Z,19.60
2022-09-01T22:02:38.563Z,19.60
2022-09-01T22:05:26.460Z,19.60
2022-09-01T22:08:16.208Z,19.50
2022-09-01T22:11:09.684Z,20.90
2022-09-01T22:13:58.457Z,19.50
2022-09-01T22:16:47.594Z,19.40
2022-09-01T22:19:35.442Z,19.30
2022-09-01T22:22:23.110Z,19.30
2022-09-01T22:25:12.386Z,19.20
2022-09-01T22:28:01.012Z,19.30
2022-09-01T22:30:49.567Z,19.20
2022-09-01T22:33:38.758Z,19.20
2022-09-01T22:36:29.452Z,19.10
2022-09-01T22:39:18.771Z,19.10
2022-09-01T22:42:07.781Z,19.10
2022-09-01T22:44:55.492Z,19.00
2022-09-01T22:47:43.952Z,18.90
2022-09-01T22:50:39.037Z,18.90
2022-09-01T22:53:26.372Z,18.90
2022-09-01T22:56:16.324Z,19.00
2022-09-01T22:59:05.182Z,18.60
2022-09-01T23:01:53.273Z,18.60
2022-09-01T23:04:42.525Z,18.50
2022-09-01T23:07:31.378Z,18.40
2022-09-01T23:10:19.079Z,18.30
2022-09-01T23:13:06.756Z,18.20
2022-09-01T23:15:54.151Z,18.00
2022-09-01T23:18:43.458Z,17.90
2022-09-01T23:21:32.154Z,17.80
2022-09-01T23:24:21.222Z,17.60
2022-09-01T23:27:08.531Z,17.50
2022-09-01T23:30:00.463Z,17.50
2022-09-01T23:32:48.375Z,17.40
2022-09-01T23:35:35.980Z,17.60
2022-09-01T23:38:24.555Z,17.30
2022-09-01T23:41:13.979Z,17.20
2022-09-01T23:44:03.000Z,17.10
2022-09-01T23:46:50.616Z,17.10
2022-09-01T23:49:38.344Z,17.00
2022-09-01T23:52:25.515Z,16.90
2022-09-01T23:55:12.944Z,16.80
2022-09-01T23:58:02.054Z,16.80
